Croghan, New York
Current Conditions -  °F | °C
As of 12:58 PM on Friday 24 Oct 2014 (Local Time) from KGTB Reporting Station
Scattered Clouds Scattered Clouds  
Wind Chill: 56°   Ceiling: Unl
Heat Index: 56°   Visibility: 10mi
Dew Point: 40°   Wind: 6mph
Humidity: 56%   Direction: 320°NW
Pressure: 29.89"   Gusts: NA
Location:  43.9°N, 75.39°W
Report Text: KGTB 241658Z AUTO 32005KT 10SM SCT060 13/04 A2989 RMK AO2 SLP124 T01310044
Loading
Personal Weather Stations






























Interactive Weather Map
Tropical Storm Tracking
New forecast layout! Learn more

10-Day Weather Forecast

Advertisements
Track Severe Weather on mobile